sensor_id;sensor_type;location;lat;lon;timestamp;P1;durP1;ratioP1;P2;durP2;ratioP2
22786;SDS011;63134;52.020;4.714;2022-12-18T00:02:01;215.60;;;51.67;;
22786;SDS011;63134;52.020;4.714;2022-12-18T00:04:50;181.63;;;51.20;;
22786;SDS011;63134;52.020;4.714;2022-12-18T00:07:38;193.88;;;50.75;;
22786;SDS011;63134;52.020;4.714;2022-12-18T00:10:24;247.30;;;52.78;;
22786;SDS011;63134;52.020;4.714;2022-12-18T00:13:09;191.85;;;51.95;;
22786;SDS011;63134;52.020;4.714;2022-12-18T00:15:55;217.48;;;52.28;;
22786;SDS011;63134;52.020;4.714;2022-12-18T00:18:46;209.65;;;49.38;;
22786;SDS011;63134;52.020;4.714;2022-12-18T00:21:39;371.17;;;52.85;;
22786;SDS011;63134;52.020;4.714;2022-12-18T00:24:28;216.32;;;50.47;;
22786;SDS011;63134;52.020;4.714;2022-12-18T00:27:14;302.45;;;50.90;;
22786;SDS011;63134;52.020;4.714;2022-12-18T00:29:59;294.98;;;52.92;;
22786;SDS011;63134;52.020;4.714;2022-12-18T00:32:46;398.02;;;52.72;;
22786;SDS011;63134;52.020;4.714;2022-12-18T00:35:31;261.27;;;49.97;;
22786;SDS011;63134;52.020;4.714;2022-12-18T00:38:23;453.30;;;52.40;;
22786;SDS011;63134;52.020;4.714;2022-12-18T00:41:09;461.30;;;55.90;;
22786;SDS011;63134;52.020;4.714;2022-12-18T00:43:55;242.02;;;49.83;;
22786;SDS011;63134;52.020;4.714;2022-12-18T00:46:44;304.83;;;51.28;;
22786;SDS011;63134;52.020;4.714;2022-12-18T00:49:31;396.27;;;55.17;;
22786;SDS011;63134;52.020;4.714;2022-12-18T00:52:22;237.55;;;50.45;;
22786;SDS011;63134;52.020;4.714;2022-12-18T00:55:08;314.13;;;54.95;;
22786;SDS011;63134;52.020;4.714;2022-12-18T00:57:54;285.38;;;49.50;;
22786;SDS011;63134;52.020;4.714;2022-12-18T01:00:40;329.60;;;51.05;;
22786;SDS011;63134;52.020;4.714;2022-12-18T01:03:28;182.75;;;49.20;;
22786;SDS011;63134;52.020;4.714;2022-12-18T01:06:14;178.70;;;46.55;;
22786;SDS011;63134;52.020;4.714;2022-12-18T01:09:00;183.82;;;45.78;;
22786;SDS011;63134;52.020;4.714;2022-12-18T01:11:45;206.82;;;45.42;;
22786;SDS011;63134;52.020;4.714;2022-12-18T01:14:31;187.00;;;44.50;;
22786;SDS011;63134;52.020;4.714;2022-12-18T01:17:19;194.68;;;47.78;;
22786;SDS011;63134;52.020;4.714;2022-12-18T01:20:09;156.95;;;47.60;;
22786;SDS011;63134;52.020;4.714;2022-12-18T01:23:00;173.73;;;48.67;;
22786;SDS011;63134;52.020;4.714;2022-12-18T01:25:47;163.82;;;44.83;;
22786;SDS011;63134;52.020;4.714;2022-12-18T01:28:36;187.70;;;44.08;;
22786;SDS011;63134;52.020;4.714;2022-12-18T01:31:27;180.00;;;44.47;;
22786;SDS011;63134;52.020;4.714;2022-12-18T01:34:14;173.75;;;45.78;;
22786;SDS011;63134;52.020;4.714;2022-12-18T01:37:01;148.70;;;44.90;;
22786;SDS011;63134;52.020;4.714;2022-12-18T01:39:50;163.07;;;44.17;;
22786;SDS011;63134;52.020;4.714;2022-12-18T01:42:38;178.13;;;43.00;;
22786;SDS011;63134;52.020;4.714;2022-12-18T01:45:27;155.05;;;41.47;;
22786;SDS011;63134;52.020;4.714;2022-12-18T01:48:14;133.82;;;43.35;;
22786;SDS011;63134;52.020;4.714;2022-12-18T01:51:02;151.52;;;42.67;;
22786;SDS011;63134;52.020;4.714;2022-12-18T01:53:49;145.55;;;43.45;;
22786;SDS011;63134;52.020;4.714;2022-12-18T01:56:35;119.97;;;40.90;;
22786;SDS011;63134;52.020;4.714;2022-12-18T01:59:21;150.20;;;41.47;;
22786;SDS011;63134;52.020;4.714;2022-12-18T02:02:08;164.93;;;40.20;;
22786;SDS011;63134;52.020;4.714;2022-12-18T02:04:54;196.77;;;44.35;;
22786;SDS011;63134;52.020;4.714;2022-12-18T02:16:52;177.35;;;39.97;;
22786;SDS011;63134;52.020;4.714;2022-12-18T02:23:04;144.45;;;40.22;;
22786;SDS011;63134;52.020;4.714;2022-12-18T02:29:21;136.27;;;42.28;;
22786;SDS011;63134;52.020;4.714;2022-12-18T02:32:24;151.90;;;43.80;;
22786;SDS011;63134;52.020;4.714;2022-12-18T02:35:16;192.23;;;44.35;;
22786;SDS011;63134;52.020;4.714;2022-12-18T02:38:11;135.98;;;43.25;;
22786;SDS011;63134;52.020;4.714;2022-12-18T02:41:00;128.80;;;40.97;;
22786;SDS011;63134;52.020;4.714;2022-12-18T02:43:58;176.38;;;43.20;;
22786;SDS011;63134;52.020;4.714;2022-12-18T02:46:50;138.52;;;44.03;;
22786;SDS011;63134;52.020;4.714;2022-12-18T02:56:05;176.38;;;42.08;;
22786;SDS011;63134;52.020;4.714;2022-12-18T02:59:07;133.95;;;41.22;;
22786;SDS011;63134;52.020;4.714;2022-12-18T03:02:07;142.63;;;41.08;;
22786;SDS011;63134;52.020;4.714;2022-12-18T03:08:18;118.85;;;42.05;;
22786;SDS011;63134;52.020;4.714;2022-12-18T03:14:00;166.95;;;38.05;;
22786;SDS011;63134;52.020;4.714;2022-12-18T03:16:47;124.43;;;39.80;;
22786;SDS011;63134;52.020;4.714;2022-12-18T03:19:36;126.25;;;39.08;;
22786;SDS011;63134;52.020;4.714;2022-12-18T03:22:27;118.82;;;40.05;;
22786;SDS011;63134;52.020;4.714;2022-12-18T03:25:16;121.82;;;42.30;;
22786;SDS011;63134;52.020;4.714;2022-12-18T03:28:04;119.20;;;41.80;;
22786;SDS011;63134;52.020;4.714;2022-12-18T03:30:55;145.43;;;42.25;;
22786;SDS011;63134;52.020;4.714;2022-12-18T03:33:57;146.88;;;41.85;;
22786;SDS011;63134;52.020;4.714;2022-12-18T03:36:52;126.75;;;38.70;;
22786;SDS011;63134;52.020;4.714;2022-12-18T03:39:40;117.57;;;39.65;;
22786;SDS011;63134;52.020;4.714;2022-12-18T03:42:46;134.00;;;40.42;;
22786;SDS011;63134;52.020;4.714;2022-12-18T03:45:38;112.78;;;38.97;;
22786;SDS011;63134;52.020;4.714;2022-12-18T03:48:41;120.05;;;42.42;;
22786;SDS011;63134;52.020;4.714;2022-12-18T03:54:37;110.93;;;43.22;;
22786;SDS011;63134;52.020;4.714;2022-12-18T03:57:31;111.63;;;40.60;;
22786;SDS011;63134;52.020;4.714;2022-12-18T04:00:20;112.07;;;41.67;;
22786;SDS011;63134;52.020;4.714;2022-12-18T04:03:18;108.07;;;42.13;;
22786;SDS011;63134;52.020;4.714;2022-12-18T04:06:10;119.35;;;45.30;;
22786;SDS011;63134;52.020;4.714;2022-12-18T04:08:58;125.78;;;43.88;;
22786;SDS011;63134;52.020;4.714;2022-12-18T04:11:45;145.27;;;46.28;;
22786;SDS011;63134;52.020;4.714;2022-12-18T04:14:33;133.10;;;47.38;;
22786;SDS011;63134;52.020;4.714;2022-12-18T04:17:22;147.50;;;45.97;;
22786;SDS011;63134;52.020;4.714;2022-12-18T04:20:09;135.77;;;45.60;;
22786;SDS011;63134;52.020;4.714;2022-12-18T04:22:58;142.85;;;45.60;;
22786;SDS011;63134;52.020;4.714;2022-12-18T04:25:44;123.78;;;43.28;;
22786;SDS011;63134;52.020;4.714;2022-12-18T04:28:37;125.18;;;43.92;;
22786;SDS011;63134;52.020;4.714;2022-12-18T04:31:26;127.30;;;44.03;;
22786;SDS011;63134;52.020;4.714;2022-12-18T04:34:12;124.43;;;42.40;;
22786;SDS011;63134;52.020;4.714;2022-12-18T04:37:05;112.50;;;42.90;;
22786;SDS011;63134;52.020;4.714;2022-12-18T04:39:50;112.72;;;43.08;;
22786;SDS011;63134;52.020;4.714;2022-12-18T04:42:43;114.30;;;41.30;;
22786;SDS011;63134;52.020;4.714;2022-12-18T04:45:30;126.00;;;44.15;;
22786;SDS011;63134;52.020;4.714;2022-12-18T04:48:18;118.68;;;41.55;;
22786;SDS011;63134;52.020;4.714;2022-12-18T04:51:07;121.05;;;42.28;;
22786;SDS011;63134;52.020;4.714;2022-12-18T04:53:53;115.20;;;42.47;;
22786;SDS011;63134;52.020;4.714;2022-12-18T04:56:40;108.00;;;41.63;;
22786;SDS011;63134;52.020;4.714;2022-12-18T04:59:26;122.65;;;41.22;;
22786;SDS011;63134;52.020;4.714;2022-12-18T05:02:11;121.55;;;42.58;;
22786;SDS011;63134;52.020;4.714;2022-12-18T05:05:00;117.47;;;42.95;;
22786;SDS011;63134;52.020;4.714;2022-12-18T05:07:46;111.53;;;42.45;;
22786;SDS011;63134;52.020;4.714;2022-12-18T05:10:31;115.20;;;41.63;;
22786;SDS011;63134;52.020;4.714;2022-12-18T05:13:22;106.68;;;39.97;;
22786;SDS011;63134;52.020;4.714;2022-12-18T05:16:23;109.05;;;39.95;;
22786;SDS011;63134;52.020;4.714;2022-12-18T05:19:09;108.95;;;39.45;;
22786;SDS011;63134;52.020;4.714;2022-12-18T05:21:55;101.03;;;39.67;;
22786;SDS011;63134;52.020;4.714;2022-12-18T05:24:40;112.18;;;41.80;;
22786;SDS011;63134;52.020;4.714;2022-12-18T05:27:26;116.15;;;39.83;;
22786;SDS011;63134;52.020;4.714;2022-12-18T05:30:11;109.22;;;41.13;;
22786;SDS011;63134;52.020;4.714;2022-12-18T05:32:58;97.25;;;39.03;;
22786;SDS011;63134;52.020;4.714;2022-12-18T05:35:43;106.05;;;39.72;;
22786;SDS011;63134;52.020;4.714;2022-12-18T05:38:29;96.75;;;37.88;;
22786;SDS011;63134;52.020;4.714;2022-12-18T05:41:17;107.38;;;40.03;;
22786;SDS011;63134;52.020;4.714;2022-12-18T05:44:03;106.05;;;40.65;;
22786;SDS011;63134;52.020;4.714;2022-12-18T05:46:49;103.53;;;38.63;;
22786;SDS011;63134;52.020;4.714;2022-12-18T05:49:35;100.95;;;38.90;;
22786;SDS011;63134;52.020;4.714;2022-12-18T05:52:21;101.68;;;38.15;;
22786;SDS011;63134;52.020;4.714;2022-12-18T05:55:06;99.60;;;36.25;;
22786;SDS011;63134;52.020;4.714;2022-12-18T05:57:52;93.18;;;33.75;;
22786;SDS011;63134;52.020;4.714;2022-12-18T06:00:38;80.15;;;34.00;;
22786;SDS011;63134;52.020;4.714;2022-12-18T06:03:25;85.93;;;33.28;;
22786;SDS011;63134;52.020;4.714;2022-12-18T06:06:21;81.15;;;33.95;;
22786;SDS011;63134;52.020;4.714;2022-12-18T06:09:08;72.32;;;31.85;;
22786;SDS011;63134;52.020;4.714;2022-12-18T06:11:54;80.75;;;34.72;;
22786;SDS011;63134;52.020;4.714;2022-12-18T06:14:40;76.10;;;32.97;;
22786;SDS011;63134;52.020;4.714;2022-12-18T06:17:29;81.60;;;33.92;;
22786;SDS011;63134;52.020;4.714;2022-12-18T06:20:15;74.38;;;33.70;;
22786;SDS011;63134;52.020;4.714;2022-12-18T06:23:05;70.72;;;30.65;;
22786;SDS011;63134;52.020;4.714;2022-12-18T06:25:50;78.93;;;33.60;;
22786;SDS011;63134;52.020;4.714;2022-12-18T06:28:36;74.80;;;30.65;;
22786;SDS011;63134;52.020;4.714;2022-12-18T06:31:23;70.07;;;31.08;;
22786;SDS011;63134;52.020;4.714;2022-12-18T06:34:08;66.20;;;29.02;;
22786;SDS011;63134;52.020;4.714;2022-12-18T06:36:54;74.10;;;31.73;;
22786;SDS011;63134;52.020;4.714;2022-12-18T06:39:39;66.18;;;31.15;;
22786;SDS011;63134;52.020;4.714;2022-12-18T06:42:24;66.28;;;30.55;;
22786;SDS011;63134;52.020;4.714;2022-12-18T06:45:12;66.13;;;30.23;;
22786;SDS011;63134;52.020;4.714;2022-12-18T06:48:09;69.20;;;29.98;;
22786;SDS011;63134;52.020;4.714;2022-12-18T06:50:56;63.72;;;28.70;;
22786;SDS011;63134;52.020;4.714;2022-12-18T06:53:41;65.43;;;28.60;;
22786;SDS011;63134;52.020;4.714;2022-12-18T06:56:28;66.07;;;29.65;;
22786;SDS011;63134;52.020;4.714;2022-12-18T06:59:14;61.78;;;29.70;;
22786;SDS011;63134;52.020;4.714;2022-12-18T07:01:59;65.93;;;28.70;;
22786;SDS011;63134;52.020;4.714;2022-12-18T07:04:44;60.42;;;27.05;;
22786;SDS011;63134;52.020;4.714;2022-12-18T07:07:33;59.78;;;28.25;;
22786;SDS011;63134;52.020;4.714;2022-12-18T07:10:19;60.60;;;29.17;;
22786;SDS011;63134;52.020;4.714;2022-12-18T07:13:04;62.15;;;29.00;;
22786;SDS011;63134;52.020;4.714;2022-12-18T07:15:50;59.75;;;30.08;;
22786;SDS011;63134;52.020;4.714;2022-12-18T07:18:35;62.58;;;28.58;;
22786;SDS011;63134;52.020;4.714;2022-12-18T07:21:22;58.95;;;28.45;;
22786;SDS011;63134;52.020;4.714;2022-12-18T07:24:08;59.40;;;28.00;;
22786;SDS011;63134;52.020;4.714;2022-12-18T07:26:54;58.42;;;30.10;;
22786;SDS011;63134;52.020;4.714;2022-12-18T07:29:39;64.13;;;29.67;;
22786;SDS011;63134;52.020;4.714;2022-12-18T07:32:25;58.83;;;28.63;;
22786;SDS011;63134;52.020;4.714;2022-12-18T07:35:11;51.03;;;28.15;;
22786;SDS011;63134;52.020;4.714;2022-12-18T07:37:56;52.30;;;27.17;;
22786;SDS011;63134;52.020;4.714;2022-12-18T07:40:41;58.88;;;28.73;;
22786;SDS011;63134;52.020;4.714;2022-12-18T07:43:29;59.45;;;30.65;;
22786;SDS011;63134;52.020;4.714;2022-12-18T07:46:16;51.08;;;27.25;;
22786;SDS011;63134;52.020;4.714;2022-12-18T07:49:03;64.32;;;28.98;;
22786;SDS011;63134;52.020;4.714;2022-12-18T07:51:49;51.05;;;28.90;;
22786;SDS011;63134;52.020;4.714;2022-12-18T07:54:35;53.28;;;28.55;;
22786;SDS011;63134;52.020;4.714;2022-12-18T07:57:20;51.65;;;28.35;;
22786;SDS011;63134;52.020;4.714;2022-12-18T08:00:26;51.47;;;26.48;;
22786;SDS011;63134;52.020;4.714;2022-12-18T08:03:11;49.17;;;27.33;;
22786;SDS011;63134;52.020;4.714;2022-12-18T08:05:58;51.88;;;26.10;;
22786;SDS011;63134;52.020;4.714;2022-12-18T08:08:48;54.42;;;28.02;;
22786;SDS011;63134;52.020;4.714;2022-12-18T08:11:33;52.22;;;28.40;;
22786;SDS011;63134;52.020;4.714;2022-12-18T08:14:25;53.58;;;28.27;;
22786;SDS011;63134;52.020;4.714;2022-12-18T08:17:10;53.05;;;27.55;;
22786;SDS011;63134;52.020;4.714;2022-12-18T08:19:56;53.95;;;27.92;;
22786;SDS011;63134;52.020;4.714;2022-12-18T08:22:42;43.03;;;25.88;;
22786;SDS011;63134;52.020;4.714;2022-12-18T08:25:27;53.45;;;26.17;;
22786;SDS011;63134;52.020;4.714;2022-12-18T08:28:13;45.40;;;25.20;;
22786;SDS011;63134;52.020;4.714;2022-12-18T08:31:01;54.30;;;27.45;;
22786;SDS011;63134;52.020;4.714;2022-12-18T08:33:49;46.33;;;25.23;;
22786;SDS011;63134;52.020;4.714;2022-12-18T08:36:35;42.92;;;23.48;;
22786;SDS011;63134;52.020;4.714;2022-12-18T08:39:21;44.58;;;24.85;;
22786;SDS011;63134;52.020;4.714;2022-12-18T08:42:10;44.63;;;24.42;;
22786;SDS011;63134;52.020;4.714;2022-12-18T08:45:20;44.72;;;25.23;;
22786;SDS011;63134;52.020;4.714;2022-12-18T08:48:07;49.78;;;25.38;;
22786;SDS011;63134;52.020;4.714;2022-12-18T08:50:56;47.25;;;24.05;;
22786;SDS011;63134;52.020;4.714;2022-12-18T08:53:42;43.22;;;22.98;;
22786;SDS011;63134;52.020;4.714;2022-12-18T08:56:29;46.45;;;23.95;;
22786;SDS011;63134;52.020;4.714;2022-12-18T08:59:24;42.45;;;25.20;;
22786;SDS011;63134;52.020;4.714;2022-12-18T09:02:12;49.38;;;25.02;;
22786;SDS011;63134;52.020;4.714;2022-12-18T09:04:58;42.20;;;23.05;;
22786;SDS011;63134;52.020;4.714;2022-12-18T09:07:43;45.55;;;24.17;;
22786;SDS011;63134;52.020;4.714;2022-12-18T09:10:30;46.17;;;24.05;;
22786;SDS011;63134;52.020;4.714;2022-12-18T09:13:17;43.92;;;24.67;;
22786;SDS011;63134;52.020;4.714;2022-12-18T09:16:03;43.78;;;24.38;;
22786;SDS011;63134;52.020;4.714;2022-12-18T09:19:03;43.53;;;26.08;;
22786;SDS011;63134;52.020;4.714;2022-12-18T09:21:55;41.47;;;23.00;;
22786;SDS011;63134;52.020;4.714;2022-12-18T09:24:40;42.55;;;24.60;;
22786;SDS011;63134;52.020;4.714;2022-12-18T09:27:26;38.55;;;22.15;;
22786;SDS011;63134;52.020;4.714;2022-12-18T09:30:11;40.15;;;23.70;;
22786;SDS011;63134;52.020;4.714;2022-12-18T09:33:03;38.95;;;21.08;;
22786;SDS011;63134;52.020;4.714;2022-12-18T09:35:50;41.55;;;21.60;;
22786;SDS011;63134;52.020;4.714;2022-12-18T09:38:36;33.88;;;21.10;;
22786;SDS011;63134;52.020;4.714;2022-12-18T09:41:41;37.88;;;21.58;;
22786;SDS011;63134;52.020;4.714;2022-12-18T09:44:41;39.35;;;21.92;;
22786;SDS011;63134;52.020;4.714;2022-12-18T09:47:33;37.88;;;21.48;;
22786;SDS011;63134;52.020;4.714;2022-12-18T09:50:34;36.72;;;21.58;;
22786;SDS011;63134;52.020;4.714;2022-12-18T09:53:24;39.28;;;22.10;;
22786;SDS011;63134;52.020;4.714;2022-12-18T09:56:16;35.83;;;21.35;;
22786;SDS011;63134;52.020;4.714;2022-12-18T09:59:04;45.45;;;22.33;;
22786;SDS011;63134;52.020;4.714;2022-12-18T10:01:50;36.33;;;20.92;;
22786;SDS011;63134;52.020;4.714;2022-12-18T10:04:36;37.42;;;22.80;;
22786;SDS011;63134;52.020;4.714;2022-12-18T10:07:24;36.42;;;22.55;;
22786;SDS011;63134;52.020;4.714;2022-12-18T10:19:21;37.53;;;21.42;;
22786;SDS011;63134;52.020;4.714;2022-12-18T10:22:25;36.47;;;21.58;;
22786;SDS011;63134;52.020;4.714;2022-12-18T10:28:36;35.60;;;21.08;;
22786;SDS011;63134;52.020;4.714;2022-12-18T10:31:24;37.78;;;21.60;;
22786;SDS011;63134;52.020;4.714;2022-12-18T10:34:12;34.72;;;19.52;;
22786;SDS011;63134;52.020;4.714;2022-12-18T10:36:59;31.05;;;19.70;;
22786;SDS011;63134;52.020;4.714;2022-12-18T10:43:13;34.30;;;20.00;;
22786;SDS011;63134;52.020;4.714;2022-12-18T10:48:53;35.55;;;20.02;;
22786;SDS011;63134;52.020;4.714;2022-12-18T10:51:41;35.20;;;21.23;;
22786;SDS011;63134;52.020;4.714;2022-12-18T10:54:26;35.72;;;20.67;;
22786;SDS011;63134;52.020;4.714;2022-12-18T10:57:37;32.53;;;19.85;;
22786;SDS011;63134;52.020;4.714;2022-12-18T11:00:23;37.28;;;21.15;;
22786;SDS011;63134;52.020;4.714;2022-12-18T11:06:26;35.15;;;19.58;;
22786;SDS011;63134;52.020;4.714;2022-12-18T11:09:22;35.78;;;20.23;;
22786;SDS011;63134;52.020;4.714;2022-12-18T11:12:19;34.65;;;20.63;;
22786;SDS011;63134;52.020;4.714;2022-12-18T11:18:35;31.17;;;19.63;;
22786;SDS011;63134;52.020;4.714;2022-12-18T11:21:21;28.98;;;18.67;;
22786;SDS011;63134;52.020;4.714;2022-12-18T11:24:13;28.48;;;19.30;;
22786;SDS011;63134;52.020;4.714;2022-12-18T11:27:05;30.52;;;18.98;;
22786;SDS011;63134;52.020;4.714;2022-12-18T11:36:07;32.22;;;18.60;;
22786;SDS011;63134;52.020;4.714;2022-12-18T11:38:54;29.33;;;19.02;;
22786;SDS011;63134;52.020;4.714;2022-12-18T11:42:27;28.17;;;17.92;;
22786;SDS011;63134;52.020;4.714;2022-12-18T11:48:00;31.30;;;18.30;;
22786;SDS011;63134;52.020;4.714;2022-12-18T11:50:55;31.80;;;20.25;;
22786;SDS011;63134;52.020;4.714;2022-12-18T11:53:42;31.98;;;20.35;;
22786;SDS011;63134;52.020;4.714;2022-12-18T11:56:32;32.58;;;19.92;;
22786;SDS011;63134;52.020;4.714;2022-12-18T11:59:32;33.13;;;19.63;;
22786;SDS011;63134;52.020;4.714;2022-12-18T12:05:40;32.58;;;20.30;;
22786;SDS011;63134;52.020;4.714;2022-12-18T12:08:43;38.65;;;21.05;;
22786;SDS011;63134;52.020;4.714;2022-12-18T12:11:46;33.42;;;20.33;;
22786;SDS011;63134;52.020;4.714;2022-12-18T12:18:11;30.77;;;18.90;;
22786;SDS011;63134;52.020;4.714;2022-12-18T12:21:26;33.47;;;19.52;;
22786;SDS011;63134;52.020;4.714;2022-12-18T12:24:33;28.65;;;18.25;;
22786;SDS011;63134;52.020;4.714;2022-12-18T12:33:49;28.70;;;17.63;;
22786;SDS011;63134;52.020;4.714;2022-12-18T12:36:57;31.38;;;19.45;;
22786;SDS011;63134;52.020;4.714;2022-12-18T12:39:49;31.38;;;18.85;;
22786;SDS011;63134;52.020;4.714;2022-12-18T12:42:38;27.58;;;19.35;;
22786;SDS011;63134;52.020;4.714;2022-12-18T12:46:00;34.20;;;19.42;;
22786;SDS011;63134;52.020;4.714;2022-12-18T12:48:55;30.13;;;18.77;;
22786;SDS011;63134;52.020;4.714;2022-12-18T12:51:45;29.55;;;19.05;;
22786;SDS011;63134;52.020;4.714;2022-12-18T12:54:59;41.30;;;19.63;;
22786;SDS011;63134;52.020;4.714;2022-12-18T12:57:58;31.83;;;20.00;;
22786;SDS011;63134;52.020;4.714;2022-12-18T13:04:25;31.15;;;19.67;;
22786;SDS011;63134;52.020;4.714;2022-12-18T13:08:02;30.85;;;19.60;;
22786;SDS011;63134;52.020;4.714;2022-12-18T13:10:34;35.50;;;19.70;;
22786;SDS011;63134;52.020;4.714;2022-12-18T13:13:20;32.85;;;20.02;;
22786;SDS011;63134;52.020;4.714;2022-12-18T13:16:08;33.67;;;20.08;;
22786;SDS011;63134;52.020;4.714;2022-12-18T13:18:58;34.20;;;19.98;;
22786;SDS011;63134;52.020;4.714;2022-12-18T13:21:45;31.27;;;19.95;;
22786;SDS011;63134;52.020;4.714;2022-12-18T13:24:38;28.95;;;18.48;;
22786;SDS011;63134;52.020;4.714;2022-12-18T13:36:28;40.15;;;21.45;;
22786;SDS011;63134;52.020;4.714;2022-12-18T13:45:35;34.03;;;20.30;;
22786;SDS011;63134;52.020;4.714;2022-12-18T13:48:26;34.13;;;22.30;;
22786;SDS011;63134;52.020;4.714;2022-12-18T13:51:13;35.90;;;21.98;;
22786;SDS011;63134;52.020;4.714;2022-12-18T13:57:25;36.00;;;20.58;;
22786;SDS011;63134;52.020;4.714;2022-12-18T14:03:18;36.05;;;20.67;;
22786;SDS011;63134;52.020;4.714;2022-12-18T14:06:07;35.67;;;20.08;;
22786;SDS011;63134;52.020;4.714;2022-12-18T14:08:59;31.63;;;20.25;;
22786;SDS011;63134;52.020;4.714;2022-12-18T14:11:48;33.33;;;20.48;;
22786;SDS011;63134;52.020;4.714;2022-12-18T14:14:35;34.65;;;21.10;;
22786;SDS011;63134;52.020;4.714;2022-12-18T14:17:21;33.65;;;20.48;;
22786;SDS011;63134;52.020;4.714;2022-12-18T14:20:13;32.65;;;20.42;;
22786;SDS011;63134;52.020;4.714;2022-12-18T14:23:00;34.63;;;20.35;;
22786;SDS011;63134;52.020;4.714;2022-12-18T14:25:49;37.92;;;21.92;;
22786;SDS011;63134;52.020;4.714;2022-12-18T14:28:42;35.38;;;20.58;;
22786;SDS011;63134;52.020;4.714;2022-12-18T14:31:31;37.53;;;20.85;;
22786;SDS011;63134;52.020;4.714;2022-12-18T14:34:20;32.70;;;20.30;;
22786;SDS011;63134;52.020;4.714;2022-12-18T14:37:11;31.92;;;20.45;;
22786;SDS011;63134;52.020;4.714;2022-12-18T14:40:04;37.47;;;20.73;;
22786;SDS011;63134;52.020;4.714;2022-12-18T14:42:55;35.95;;;21.30;;
22786;SDS011;63134;52.020;4.714;2022-12-18T14:45:42;34.20;;;20.83;;
22786;SDS011;63134;52.020;4.714;2022-12-18T14:48:36;32.88;;;19.33;;
22786;SDS011;63134;52.020;4.714;2022-12-18T14:51:27;34.00;;;20.75;;
22786;SDS011;63134;52.020;4.714;2022-12-18T14:54:18;34.17;;;20.13;;
22786;SDS011;63134;52.020;4.714;2022-12-18T14:57:06;32.92;;;20.02;;
22786;SDS011;63134;52.020;4.714;2022-12-18T15:00:11;38.70;;;22.67;;
22786;SDS011;63134;52.020;4.714;2022-12-18T15:03:01;36.97;;;21.88;;
22786;SDS011;63134;52.020;4.714;2022-12-18T15:05:52;38.50;;;22.02;;
22786;SDS011;63134;52.020;4.714;2022-12-18T15:08:38;35.17;;;20.55;;
22786;SDS011;63134;52.020;4.714;2022-12-18T15:11:44;34.20;;;20.63;;
22786;SDS011;63134;52.020;4.714;2022-12-18T15:14:37;38.25;;;19.45;;
22786;SDS011;63134;52.020;4.714;2022-12-18T15:17:25;41.50;;;21.67;;
22786;SDS011;63134;52.020;4.714;2022-12-18T15:20:11;34.17;;;20.48;;
22786;SDS011;63134;52.020;4.714;2022-12-18T15:22:58;32.45;;;21.02;;
22786;SDS011;63134;52.020;4.714;2022-12-18T15:25:44;37.70;;;21.63;;
22786;SDS011;63134;52.020;4.714;2022-12-18T15:31:24;40.15;;;20.85;;
22786;SDS011;63134;52.020;4.714;2022-12-18T15:34:11;37.03;;;21.52;;
22786;SDS011;63134;52.020;4.714;2022-12-18T15:37:04;32.92;;;20.35;;
22786;SDS011;63134;52.020;4.714;2022-12-18T15:39:55;34.10;;;18.42;;
22786;SDS011;63134;52.020;4.714;2022-12-18T15:42:41;32.80;;;20.17;;
22786;SDS011;63134;52.020;4.714;2022-12-18T15:45:46;33.25;;;20.23;;
22786;SDS011;63134;52.020;4.714;2022-12-18T15:48:32;35.63;;;19.67;;
22786;SDS011;63134;52.020;4.714;2022-12-18T15:51:35;32.28;;;20.10;;
22786;SDS011;63134;52.020;4.714;2022-12-18T15:54:22;32.67;;;19.83;;
22786;SDS011;63134;52.020;4.714;2022-12-18T15:57:30;40.97;;;20.45;;
22786;SDS011;63134;52.020;4.714;2022-12-18T16:00:15;33.80;;;20.27;;
22786;SDS011;63134;52.020;4.714;2022-12-18T16:03:01;35.35;;;20.45;;
22786;SDS011;63134;52.020;4.714;2022-12-18T16:05:50;31.50;;;18.98;;
22786;SDS011;63134;52.020;4.714;2022-12-18T16:08:36;35.25;;;20.13;;
22786;SDS011;63134;52.020;4.714;2022-12-18T16:11:24;31.27;;;19.77;;
22786;SDS011;63134;52.020;4.714;2022-12-18T16:14:24;32.53;;;19.73;;
22786;SDS011;63134;52.020;4.714;2022-12-18T16:17:11;31.95;;;18.42;;
22786;SDS011;63134;52.020;4.714;2022-12-18T16:19:58;34.75;;;19.60;;
22786;SDS011;63134;52.020;4.714;2022-12-18T16:22:44;31.45;;;19.48;;
22786;SDS011;63134;52.020;4.714;2022-12-18T16:25:30;33.67;;;20.48;;
22786;SDS011;63134;52.020;4.714;2022-12-18T16:28:16;32.38;;;19.52;;
22786;SDS011;63134;52.020;4.714;2022-12-18T16:31:04;32.38;;;19.98;;
22786;SDS011;63134;52.020;4.714;2022-12-18T16:33:49;34.80;;;19.50;;
22786;SDS011;63134;52.020;4.714;2022-12-18T16:36:57;38.58;;;21.13;;
22786;SDS011;63134;52.020;4.714;2022-12-18T16:39:52;36.55;;;19.65;;
22786;SDS011;63134;52.020;4.714;2022-12-18T16:42:38;36.17;;;21.05;;
22786;SDS011;63134;52.020;4.714;2022-12-18T16:45:26;36.40;;;21.20;;
22786;SDS011;63134;52.020;4.714;2022-12-18T16:48:17;37.97;;;19.20;;
22786;SDS011;63134;52.020;4.714;2022-12-18T16:51:03;32.25;;;19.35;;
22786;SDS011;63134;52.020;4.714;2022-12-18T16:53:49;37.90;;;20.95;;
22786;SDS011;63134;52.020;4.714;2022-12-18T16:56:39;34.30;;;19.73;;
22786;SDS011;63134;52.020;4.714;2022-12-18T16:59:26;38.97;;;21.55;;
22786;SDS011;63134;52.020;4.714;2022-12-18T17:02:15;36.05;;;21.63;;
22786;SDS011;63134;52.020;4.714;2022-12-18T17:05:08;31.97;;;19.90;;
22786;SDS011;63134;52.020;4.714;2022-12-18T17:07:55;32.40;;;19.42;;
22786;SDS011;63134;52.020;4.714;2022-12-18T17:10:41;39.55;;;21.00;;
22786;SDS011;63134;52.020;4.714;2022-12-18T17:13:27;34.03;;;20.40;;
22786;SDS011;63134;52.020;4.714;2022-12-18T17:16:13;40.13;;;20.58;;
22786;SDS011;63134;52.020;4.714;2022-12-18T17:19:05;36.92;;;22.92;;
22786;SDS011;63134;52.020;4.714;2022-12-18T17:21:59;36.40;;;21.00;;
22786;SDS011;63134;52.020;4.714;2022-12-18T17:24:46;33.50;;;20.58;;
22786;SDS011;63134;52.020;4.714;2022-12-18T17:27:31;33.63;;;19.42;;
22786;SDS011;63134;52.020;4.714;2022-12-18T17:30:20;37.95;;;22.20;;
22786;SDS011;63134;52.020;4.714;2022-12-18T17:33:08;33.53;;;20.75;;
22786;SDS011;63134;52.020;4.714;2022-12-18T17:35:53;35.25;;;20.52;;
22786;SDS011;63134;52.020;4.714;2022-12-18T17:38:43;35.72;;;21.30;;
22786;SDS011;63134;52.020;4.714;2022-12-18T17:44:23;35.28;;;20.80;;
22786;SDS011;63134;52.020;4.714;2022-12-18T17:47:09;35.78;;;20.40;;
22786;SDS011;63134;52.020;4.714;2022-12-18T17:49:56;37.75;;;21.58;;
22786;SDS011;63134;52.020;4.714;2022-12-18T17:52:41;35.83;;;20.67;;
22786;SDS011;63134;52.020;4.714;2022-12-18T17:55:27;36.38;;;21.77;;
22786;SDS011;63134;52.020;4.714;2022-12-18T17:58:13;36.33;;;19.85;;
22786;SDS011;63134;52.020;4.714;2022-12-18T18:00:59;34.20;;;20.85;;
22786;SDS011;63134;52.020;4.714;2022-12-18T18:03:45;34.63;;;21.33;;
22786;SDS011;63134;52.020;4.714;2022-12-18T18:06:35;36.80;;;21.52;;
22786;SDS011;63134;52.020;4.714;2022-12-18T18:09:23;37.42;;;21.15;;
22786;SDS011;63134;52.020;4.714;2022-12-18T18:12:08;37.50;;;21.48;;
22786;SDS011;63134;52.020;4.714;2022-12-18T18:15:12;36.65;;;21.75;;
22786;SDS011;63134;52.020;4.714;2022-12-18T18:17:59;34.60;;;20.42;;
22786;SDS011;63134;52.020;4.714;2022-12-18T18:20:44;35.65;;;19.55;;